This is the latest recevied weather packets stored in our database for station/object HB9GFF-10. If no packets are shown the sender has not sent any weather packets the latest 10 day(s).
| Time | Temp. | Humidity | Pressure | Rain* | Wind** | Luminosity | Snow |
|---|---|---|---|---|---|---|---|
| 1777455414 | 19.44° C | 48% | 956 hPa | - | - | - | - |
| 1777455349 | 19.44° C | 50% | 955 hPa | - | - | - | - |
| 1777455283 | 19.44° C | 50% | 955 hPa | - | - | - | - |
| 1777455218 | 19.44° C | 53% | 955 hPa | - | - | - | - |
| 1777455152 | 20° C | 54% | 955 hPa | - | - | - | - |
| 1777455087 | 19.44° C | 52% | 955 hPa | - | - | - | - |
| 1777455022 | 18.89° C | 52% | 955 hPa | - | - | - | - |
| 1777454956 | 18.89° C | 52% | 956 hPa | - | - | - | - |
| 1777454891 | 18.89° C | 49% | 955 hPa | - | - | - | - |
| 1777454825 | 19.44° C | 54% | 955 hPa | - | - | - | - |
| 1777454760 | 19.44° C | 56% | 955 hPa | - | - | - | - |
| 1777454695 | 18.89° C | 54% | 955 hPa | - | - | - | - |
| 1777454629 | 18.33° C | 51% | 955 hPa | - | - | - | - |
| 1777454564 | 18.89° C | 52% | 955 hPa | - | - | - | - |
| 1777454499 | 18.33° C | 50% | 955 hPa | - | - | - | - |
| 1777454433 | 17.78° C | 51% | 955 hPa | - | - | - | - |
| 1777454368 | 17.78° C | 56% | 955 hPa | - | - | - | - |
| 1777454302 | 17.78° C | 54% | 955 hPa | - | - | - | - |
| 1777454237 | 18.33° C | 59% | 956 hPa | - | - | - | - |
| 1777454171 | 18.33° C | 57% | 956 hPa | - | - | - | - |
| 1777454106 | 18.89° C | 54% | 956 hPa | - | - | - | - |
| 1777454041 | 18.33° C | 55% | 956 hPa | - | - | - | - |
| 1777453975 | 19.44° C | 56% | 956 hPa | - | - | - | - |
| 1777453910 | 18.33° C | 50% | 956 hPa | - | - | - | - |
| 1777453844 | 18.89° C | 55% | 956 hPa | - | - | - | - |
* Rain since midnight (hover to see other rain measurements)
** Current wind speed in m/s (hover to see current wind gust speed)